Time;durP1;ratioP1;P1;durP2;ratioP2;P2;SDS_P1;SDS_P2;PMS_P1;PMS_P2;Temp;Humidity;BMP_temperature;BMP_pressure;BME280_temperature;BME280_humidity;BME280_pressure;Samples;Min_cycle;Max_cycle;Signal;HPM_P1;HPM_P2
2021/10/26 00:00:08;;;;;;;32.95;28.45;;;;;;;;;;2081901;28;20164;-64
2021/10/26 00:01:08;;;;;;;36.78;27.98;;;;;;;;;;2081604;28;20184;-64
2021/10/26 00:02:09;;;;;;;33.53;27.65;;;;;;;;;;2080369;28;20541;-64
2021/10/26 00:03:09;;;;;;;33.60;27.88;;;;;;;;;;2081516;28;20208;-65
2021/10/26 00:04:10;;;;;;;35.17;28.20;;;;;;;;;;2081689;28;20156;-64
2021/10/26 00:05:10;;;;;;;33.78;27.65;;;;;;;;;;2081525;28;20633;-65
2021/10/26 00:06:10;;;;;;;32.00;27.38;;;;;;;;;;2072640;28;20181;-65
2021/10/26 00:07:11;;;;;;;33.63;27.10;;;;;;;;;;2072673;28;20276;-63
2021/10/26 00:08:11;;;;;;;34.25;28.90;;;;;;;;;;2080604;28;20230;-65
2021/10/26 00:09:11;;;;;;;33.65;28.48;;;;;;;;;;2078975;28;20176;-62
2021/10/26 00:10:12;;;;;;;34.38;26.60;;;;;;;;;;2084907;28;20560;-60
2021/10/26 00:11:12;;;;;;;30.98;26.33;;;;;;;;;;2088715;28;20176;-66
2021/10/26 00:12:12;;;;;;;33.30;26.17;;;;;;;;;;2081710;28;20203;-65
2021/10/26 00:13:13;;;;;;;35.30;26.35;;;;;;;;;;2080367;28;20181;-64
2021/10/26 00:14:13;;;;;;;31.65;26.17;;;;;;;;;;2080889;28;20176;-64
2021/10/26 00:15:13;;;;;;;28.58;25.02;;;;;;;;;;2079435;28;20231;-64
2021/10/26 00:16:14;;;;;;;30.23;25.65;;;;;;;;;;2084303;28;20820;-64
2021/10/26 00:17:15;;;;;;;26.73;23.55;;;;;;;;;;2089140;28;20174;-65
2021/10/26 00:18:16;;;;;;;29.73;24.52;;;;;;;;;;2081648;28;20662;-64
2021/10/26 00:19:16;;;;;;;32.22;25.35;;;;;;;;;;2081313;28;20187;-65
2021/10/26 00:20:17;;;;;;;32.08;24.30;;;;;;;;;;2081113;28;20164;-64
2021/10/26 00:21:17;;;;;;;27.20;22.67;;;;;;;;;;2081523;28;20188;-64
2021/10/26 00:22:18;;;;;;;28.70;23.90;;;;;;;;;;2080990;28;20192;-64
2021/10/26 00:23:18;;;;;;;33.90;24.58;;;;;;;;;;2079757;28;20196;-64
2021/10/26 00:24:19;;;;;;;29.52;23.20;;;;;;;;;;2081672;28;20227;-64
2021/10/26 00:25:19;;;;;;;28.38;22.88;;;;;;;;;;2079697;28;20259;-65
2021/10/26 00:26:19;;;;;;;28.33;24.00;;;;;;;;;;2081106;28;20234;-64
2021/10/26 00:27:19;;;;;;;26.70;23.77;;;;;;;;;;2081270;28;20176;-65
2021/10/26 00:28:20;;;;;;;30.42;23.10;;;;;;;;;;2081126;28;20200;-65
2021/10/26 00:29:21;;;;;;;29.27;23.27;;;;;;;;;;2081874;28;20247;-65
2021/10/26 00:30:21;;;;;;;27.75;22.23;;;;;;;;;;2085707;28;20206;-65
2021/10/26 00:31:21;;;;;;;30.73;23.42;;;;;;;;;;2086301;28;20175;-64
2021/10/26 00:32:22;;;;;;;29.45;23.38;;;;;;;;;;2080593;28;20188;-63
2021/10/26 00:33:23;;;;;;;28.77;22.98;;;;;;;;;;2070242;28;20173;-65
2021/10/26 00:34:23;;;;;;;27.50;23.70;;;;;;;;;;2080648;28;20199;-64
2021/10/26 00:35:28;;;;;;;27.08;22.92;;;;;;;;;;2081566;28;20187;-61
2021/10/26 00:36:28;;;;;;;25.10;22.45;;;;;;;;;;2081932;28;20196;-64
2021/10/26 00:37:29;;;;;;;25.30;21.73;;;;;;;;;;2076313;28;20172;-63
2021/10/26 00:38:29;;;;;;;29.45;23.20;;;;;;;;;;2076071;28;20208;-62
2021/10/26 00:39:29;;;;;;;26.13;21.45;;;;;;;;;;2082705;28;20202;-64
2021/10/26 00:40:31;;;;;;;27.00;22.15;;;;;;;;;;2080993;28;20597;-64
2021/10/26 00:41:32;;;;;;;26.20;21.90;;;;;;;;;;2072787;28;20184;-64
2021/10/26 00:42:32;;;;;;;27.40;23.25;;;;;;;;;;2072835;28;20208;-63
2021/10/26 00:43:33;;;;;;;29.80;21.10;;;;;;;;;;2077216;28;20170;-65
2021/10/26 00:44:33;;;;;;;27.95;22.25;;;;;;;;;;2072671;28;20649;-64
2021/10/26 00:45:35;;;;;;;25.73;22.38;;;;;;;;;;2081529;28;20259;-63
2021/10/26 00:46:36;;;;;;;26.40;21.75;;;;;;;;;;2081568;28;20561;-64
2021/10/26 00:47:36;;;;;;;24.90;21.98;;;;;;;;;;2081519;28;20177;-63
2021/10/26 00:48:38;;;;;;;29.55;22.77;;;;;;;;;;2081209;28;20203;-64
2021/10/26 00:49:38;;;;;;;28.85;21.55;;;;;;;;;;2078380;28;20181;-64
2021/10/26 00:50:38;;;;;;;27.38;22.20;;;;;;;;;;2080403;28;20179;-64
2021/10/26 00:51:39;;;;;;;25.90;22.85;;;;;;;;;;2081560;28;20176;-64
2021/10/26 00:52:41;;;;;;;23.38;19.98;;;;;;;;;;2065147;28;20173;-65
2021/10/26 00:53:42;;;;;;;23.23;20.70;;;;;;;;;;2072892;28;20699;-64
2021/10/26 00:54:42;;;;;;;24.60;20.95;;;;;;;;;;2081202;28;20198;-64
2021/10/26 00:55:44;;;;;;;25.33;21.63;;;;;;;;;;2082303;28;20271;-65
2021/10/26 00:56:45;;;;;;;27.70;20.90;;;;;;;;;;2081721;28;20199;-64
2021/10/26 00:57:46;;;;;;;23.95;20.58;;;;;;;;;;2074027;28;20219;-67
2021/10/26 00:58:47;;;;;;;22.55;20.00;;;;;;;;;;2073854;28;20811;-64
2021/10/26 00:59:48;;;;;;;25.35;20.50;;;;;;;;;;2073461;28;20657;-64
2021/10/26 01:00:48;;;;;;;24.90;21.80;;;;;;;;;;2079394;28;20195;-64
2021/10/26 01:01:48;;;;;;;24.75;21.13;;;;;;;;;;2081443;28;20203;-64
2021/10/26 01:02:50;;;;;;;22.38;20.08;;;;;;;;;;2081244;28;20208;-64
2021/10/26 01:03:58;;;;;;;25.48;20.10;;;;;;;;;;2080028;28;20195;-62
2021/10/26 01:04:59;;;;;;;23.85;20.40;;;;;;;;;;2074647;28;20169;-64
2021/10/26 01:05:59;;;;;;;22.50;19.58;;;;;;;;;;2080170;28;20183;-66
2021/10/26 01:06:59;;;;;;;23.20;19.63;;;;;;;;;;2081543;28;20184;-63
2021/10/26 01:08:02;;;;;;;24.25;18.80;;;;;;;;;;2081108;28;20179;-64
2021/10/26 01:09:04;;;;;;;22.38;19.08;;;;;;;;;;2081451;28;20176;-65
2021/10/26 01:10:06;;;;;;;23.23;19.77;;;;;;;;;;2081440;28;20625;-65
2021/10/26 01:11:07;;;;;;;22.20;19.45;;;;;;;;;;2072294;28;20181;-65
2021/10/26 01:12:07;;;;;;;24.42;19.65;;;;;;;;;;2080697;28;20207;-64
2021/10/26 01:13:08;;;;;;;22.10;19.67;;;;;;;;;;2081344;28;21070;-64
2021/10/26 01:14:10;;;;;;;22.67;18.48;;;;;;;;;;2072781;28;20263;-64
2021/10/26 01:15:11;;;;;;;23.00;18.70;;;;;;;;;;2072636;28;20165;-61
2021/10/26 01:16:12;;;;;;;20.77;18.67;;;;;;;;;;2072773;28;20898;-65
2021/10/26 01:17:13;;;;;;;21.60;19.08;;;;;;;;;;2087897;28;20257;-65
2021/10/26 01:18:15;;;;;;;20.38;18.35;;;;;;;;;;2080817;28;20168;-64
2021/10/26 01:19:15;;;;;;;21.15;18.88;;;;;;;;;;2071596;28;20188;-65
2021/10/26 01:20:16;;;;;;;20.67;18.48;;;;;;;;;;2079828;28;20230;-65
2021/10/26 01:21:16;;;;;;;20.65;18.08;;;;;;;;;;2079869;28;20241;-64
2021/10/26 01:22:17;;;;;;;20.48;18.35;;;;;;;;;;2072053;28;20176;-64
2021/10/26 01:23:18;;;;;;;20.38;18.17;;;;;;;;;;2075969;28;20295;-64
2021/10/26 01:24:19;;;;;;;22.40;19.05;;;;;;;;;;2068655;28;20181;-64
2021/10/26 01:25:19;;;;;;;23.30;18.88;;;;;;;;;;2076512;28;20165;-65
2021/10/26 01:26:21;;;;;;;24.30;19.77;;;;;;;;;;2080372;28;20697;-64
2021/10/26 01:27:22;;;;;;;25.42;19.38;;;;;;;;;;2080263;28;20637;-65
2021/10/26 01:28:27;;;;;;;21.73;18.55;;;;;;;;;;2071245;28;20212;-61
2021/10/26 01:29:28;;;;;;;20.58;18.02;;;;;;;;;;2064613;28;20252;-64
2021/10/26 01:30:36;;;;;;;25.17;19.75;;;;;;;;;;2070252;28;20168;-65
2021/10/26 01:31:56;;;;;;;22.63;18.83;;;;;;;;;;2076638;28;20177;-64
2021/10/26 01:33:05;;;;;;;21.70;17.85;;;;;;;;;;2082331;28;20223;-64
2021/10/26 01:34:19;;;;;;;22.73;18.60;;;;;;;;;;2079722;28;20179;-64
2021/10/26 01:35:19;;;;;;;20.85;18.60;;;;;;;;;;2080204;28;20699;-62
2021/10/26 01:36:21;;;;;;;24.65;19.48;;;;;;;;;;2080088;28;20611;-64
2021/10/26 01:37:22;;;;;;;25.08;19.60;;;;;;;;;;2080030;28;20204;-65
2021/10/26 01:38:23;;;;;;;22.30;19.20;;;;;;;;;;2088184;28;20563;-63
2021/10/26 01:39:23;;;;;;;21.52;18.55;;;;;;;;;;2078487;28;20195;-64
2021/10/26 01:40:23;;;;;;;23.30;18.75;;;;;;;;;;2077038;28;20214;-63
2021/10/26 01:41:24;;;;;;;22.52;19.10;;;;;;;;;;2079347;28;20188;-65
2021/10/26 01:42:25;;;;;;;22.10;19.38;;;;;;;;;;2070689;28;20204;-65
2021/10/26 01:43:29;;;;;;;22.60;19.75;;;;;;;;;;2067372;28;20173;-60
2021/10/26 01:44:31;;;;;;;21.05;18.80;;;;;;;;;;2078087;28;20226;-64
2021/10/26 01:45:38;;;;;;;20.45;18.40;;;;;;;;;;2080702;28;20176;-66
2021/10/26 01:46:53;;;;;;;20.05;18.00;;;;;;;;;;2080709;28;20695;-65
2021/10/26 01:47:55;;;;;;;20.95;18.77;;;;;;;;;;2080217;28;20175;-64
2021/10/26 01:48:56;;;;;;;22.40;18.95;;;;;;;;;;2079563;28;20204;-64
2021/10/26 01:49:56;;;;;;;20.55;18.13;;;;;;;;;;2080716;28;20184;-64
2021/10/26 01:51:00;;;;;;;22.73;18.73;;;;;;;;;;2088090;28;20203;-63
2021/10/26 01:52:00;;;;;;;22.52;19.60;;;;;;;;;;2080459;28;20223;-63
2021/10/26 01:53:01;;;;;;;25.98;19.40;;;;;;;;;;2071372;28;20177;-64
2021/10/26 01:54:02;;;;;;;22.70;18.42;;;;;;;;;;2079031;28;20199;-61
2021/10/26 01:55:03;;;;;;;24.50;19.58;;;;;;;;;;2072618;28;20256;-65
2021/10/26 01:56:06;;;;;;;22.90;19.40;;;;;;;;;;2079553;28;20223;-62
2021/10/26 01:57:19;;;;;;;21.45;19.00;;;;;;;;;;2084721;28;20187;-65
2021/10/26 01:58:29;;;;;;;23.63;19.40;;;;;;;;;;2080509;28;20200;-65
2021/10/26 01:59:46;;;;;;;25.20;19.25;;;;;;;;;;2079419;28;20183;-63
2021/10/26 02:00:47;;;;;;;24.35;18.92;;;;;;;;;;2079771;28;20856;-63
2021/10/26 02:01:47;;;;;;;22.80;19.35;;;;;;;;;;2080438;28;20188;-64
2021/10/26 02:03:01;;;;;;;21.73;18.83;;;;;;;;;;2074156;28;20231;-63
2021/10/26 02:04:01;;;;;;;23.35;20.02;;;;;;;;;;2071840;28;20165;-64
2021/10/26 02:05:06;;;;;;;21.63;19.08;;;;;;;;;;2071322;28;20588;-63
2021/10/26 02:06:06;;;;;;;23.75;19.42;;;;;;;;;;2071627;28;20287;-63
2021/10/26 02:07:06;;;;;;;27.88;20.35;;;;;;;;;;2080447;28;20183;-64
2021/10/26 02:08:07;;;;;;;22.40;19.90;;;;;;;;;;2080493;28;20247;-64
2021/10/26 02:09:07;;;;;;;25.58;20.42;;;;;;;;;;2072809;28;20162;-62
2021/10/26 02:10:09;;;;;;;21.85;19.15;;;;;;;;;;2080633;28;20168;-63
2021/10/26 02:11:10;;;;;;;27.85;19.38;;;;;;;;;;2069924;28;20169;-63
2021/10/26 02:12:10;;;;;;;23.17;19.95;;;;;;;;;;2071751;28;20161;-63
2021/10/26 02:13:11;;;;;;;22.88;20.30;;;;;;;;;;2067892;28;20181;-63
2021/10/26 02:14:11;;;;;;;22.48;19.48;;;;;;;;;;2072462;28;20598;-64
2021/10/26 02:15:12;;;;;;;28.08;20.30;;;;;;;;;;2080502;28;20226;-63
2021/10/26 02:16:13;;;;;;;24.73;21.02;;;;;;;;;;2080721;28;20171;-64
2021/10/26 02:17:13;;;;;;;25.83;21.35;;;;;;;;;;2071714;28;20169;-62
2021/10/26 02:18:14;;;;;;;27.83;22.17;;;;;;;;;;2063714;28;20181;-64
2021/10/26 02:19:15;;;;;;;30.30;21.48;;;;;;;;;;2079595;28;20663;-63
2021/10/26 02:20:16;;;;;;;27.88;21.25;;;;;;;;;;2069517;28;20176;-67
2021/10/26 02:21:16;;;;;;;29.50;20.98;;;;;;;;;;2080231;28;20182;-62
2021/10/26 02:22:17;;;;;;;30.63;20.92;;;;;;;;;;2088619;28;20224;-64
2021/10/26 02:23:18;;;;;;;27.63;21.50;;;;;;;;;;2078653;28;20696;-65
2021/10/26 02:24:18;;;;;;;28.15;21.88;;;;;;;;;;2070264;28;20307;-64
2021/10/26 02:25:19;;;;;;;30.50;22.73;;;;;;;;;;2071976;28;20255;-64
2021/10/26 02:26:19;;;;;;;28.27;20.88;;;;;;;;;;2072508;28;20184;-64
2021/10/26 02:27:21;;;;;;;27.67;22.42;;;;;;;;;;2080297;28;20168;-65
2021/10/26 02:28:23;;;;;;;28.55;21.95;;;;;;;;;;2079777;28;20794;-65
2021/10/26 02:29:26;;;;;;;29.65;21.77;;;;;;;;;;2080568;28;20175;-66
2021/10/26 02:30:31;;;;;;;28.40;21.95;;;;;;;;;;2078036;28;20211;-59
2021/10/26 02:31:32;;;;;;;27.80;21.48;;;;;;;;;;2071441;28;20169;-61
2021/10/26 02:32:32;;;;;;;28.23;21.92;;;;;;;;;;2071854;28;20620;-63
2021/10/26 02:33:32;;;;;;;27.02;20.95;;;;;;;;;;2072546;28;20176;-62
2021/10/26 02:34:33;;;;;;;27.40;21.75;;;;;;;;;;2080488;28;20199;-63
2021/10/26 02:35:34;;;;;;;25.73;20.80;;;;;;;;;;2079950;28;20180;-62
2021/10/26 02:36:34;;;;;;;29.20;21.60;;;;;;;;;;2072503;28;20169;-63
2021/10/26 02:37:35;;;;;;;25.05;21.27;;;;;;;;;;2072400;28;20199;-64
2021/10/26 02:38:35;;;;;;;27.52;21.08;;;;;;;;;;2080002;28;20266;-63
2021/10/26 02:39:36;;;;;;;27.83;21.30;;;;;;;;;;2082154;28;20218;-64
2021/10/26 02:40:36;;;;;;;25.55;19.83;;;;;;;;;;2078838;28;20203;-62
2021/10/26 02:41:37;;;;;;;28.77;21.08;;;;;;;;;;2071591;28;20215;-64
2021/10/26 02:42:37;;;;;;;27.05;20.83;;;;;;;;;;2071817;28;20243;-62
2021/10/26 02:43:38;;;;;;;26.10;20.75;;;;;;;;;;2071551;28;20188;-65
2021/10/26 02:44:38;;;;;;;30.48;20.58;;;;;;;;;;2072385;28;20188;-64
2021/10/26 02:45:39;;;;;;;25.77;21.10;;;;;;;;;;2072064;28;20161;-64
2021/10/26 02:46:43;;;;;;;25.83;19.83;;;;;;;;;;2072171;28;20184;-65
2021/10/26 02:47:43;;;;;;;29.98;21.48;;;;;;;;;;2079953;28;20963;-60
2021/10/26 02:48:44;;;;;;;25.35;20.02;;;;;;;;;;2071924;28;20245;-64
2021/10/26 02:49:44;;;;;;;27.25;20.15;;;;;;;;;;2064155;28;20224;-60
2021/10/26 02:50:44;;;;;;;25.85;20.67;;;;;;;;;;2079953;28;20180;-62
2021/10/26 02:51:44;;;;;;;23.17;19.73;;;;;;;;;;2080349;28;20184;-65
2021/10/26 02:52:45;;;;;;;27.10;20.27;;;;;;;;;;2072062;28;20179;-64
2021/10/26 02:53:45;;;;;;;25.80;20.15;;;;;;;;;;2080510;28;20176;-64
2021/10/26 02:54:47;;;;;;;26.67;20.65;;;;;;;;;;2075959;28;20213;-65
2021/10/26 02:55:48;;;;;;;26.77;20.25;;;;;;;;;;2078311;28;20172;-66
2021/10/26 02:56:50;;;;;;;25.35;20.90;;;;;;;;;;2073223;28;20185;-66
2021/10/26 02:57:51;;;;;;;26.17;19.98;;;;;;;;;;2082280;28;20175;-66
2021/10/26 02:58:51;;;;;;;26.73;20.30;;;;;;;;;;2081326;28;20200;-63
2021/10/26 02:59:52;;;;;;;25.02;19.17;;;;;;;;;;2074066;28;20243;-62
2021/10/26 03:00:52;;;;;;;24.92;20.60;;;;;;;;;;2073263;28;20676;-64
2021/10/26 03:01:55;;;;;;;24.00;19.40;;;;;;;;;;2077000;28;20188;-64
2021/10/26 03:02:55;;;;;;;27.38;20.08;;;;;;;;;;2080700;28;20279;-64
2021/10/26 03:03:56;;;;;;;27.08;20.63;;;;;;;;;;2070617;28;20184;-60
2021/10/26 03:04:57;;;;;;;25.98;19.90;;;;;;;;;;2074521;28;20172;-61
2021/10/26 03:05:57;;;;;;;28.38;20.23;;;;;;;;;;2073882;28;20177;-61
2021/10/26 03:06:57;;;;;;;24.30;20.30;;;;;;;;;;2082564;28;20694;-62
2021/10/26 03:07:58;;;;;;;26.27;20.63;;;;;;;;;;2081304;28;20192;-57
2021/10/26 03:08:58;;;;;;;23.55;20.10;;;;;;;;;;2073320;28;20176;-61
2021/10/26 03:10:05;;;;;;;29.05;20.52;;;;;;;;;;2081815;28;20259;-64
2021/10/26 03:11:05;;;;;;;23.67;20.98;;;;;;;;;;2073740;28;20168;-65
2021/10/26 03:12:06;;;;;;;26.52;20.70;;;;;;;;;;2082475;28;20585;-66
2021/10/26 03:13:07;;;;;;;26.40;21.00;;;;;;;;;;2088982;28;20198;-65
2021/10/26 03:14:07;;;;;;;27.40;22.35;;;;;;;;;;2082791;28;20884;-66
2021/10/26 03:15:08;;;;;;;26.17;21.52;;;;;;;;;;2083082;28;20183;-64
2021/10/26 03:16:08;;;;;;;27.42;20.58;;;;;;;;;;2081069;28;20183;-64
2021/10/26 03:17:09;;;;;;;26.38;20.60;;;;;;;;;;2082529;28;20217;-62
2021/10/26 03:18:17;;;;;;;29.27;21.13;;;;;;;;;;2075159;28;20181;-65
2021/10/26 03:19:17;;;;;;;28.25;21.33;;;;;;;;;;2080802;28;20707;-64
2021/10/26 03:20:19;;;;;;;29.73;21.65;;;;;;;;;;2081093;28;20693;-63
2021/10/26 03:21:19;;;;;;;24.58;20.65;;;;;;;;;;2081462;28;20179;-61
2021/10/26 03:22:20;;;;;;;24.80;19.58;;;;;;;;;;2082190;28;20176;-64
2021/10/26 03:23:20;;;;;;;27.95;20.65;;;;;;;;;;2089553;28;20282;-65
2021/10/26 03:24:21;;;;;;;27.30;20.67;;;;;;;;;;2082188;28;20211;-64
2021/10/26 03:25:21;;;;;;;28.40;21.02;;;;;;;;;;2072438;28;20207;-65
2021/10/26 03:26:22;;;;;;;23.10;19.98;;;;;;;;;;2083782;28;20168;-60
2021/10/26 03:27:22;;;;;;;25.85;20.58;;;;;;;;;;2081930;28;20185;-60
2021/10/26 03:28:23;;;;;;;27.15;21.40;;;;;;;;;;2073103;28;20563;-64
2021/10/26 03:29:24;;;;;;;23.92;21.10;;;;;;;;;;2082489;28;20641;-64
2021/10/26 03:30:24;;;;;;;25.92;20.27;;;;;;;;;;2081902;28;20232;-64
2021/10/26 03:31:33;;;;;;;25.45;19.98;;;;;;;;;;2074604;28;20631;-64
2021/10/26 03:32:52;;;;;;;28.30;21.38;;;;;;;;;;2078147;28;20300;-65
2021/10/26 03:33:52;;;;;;;31.13;21.33;;;;;;;;;;2083254;28;20183;-62
2021/10/26 03:34:53;;;;;;;25.00;21.65;;;;;;;;;;2082039;28;20680;-64
2021/10/26 03:35:54;;;;;;;27.08;21.05;;;;;;;;;;2074646;28;20575;-63
2021/10/26 03:36:54;;;;;;;26.80;21.33;;;;;;;;;;2084168;28;20176;-64
2021/10/26 03:37:55;;;;;;;29.48;21.25;;;;;;;;;;2082022;28;20729;-64
2021/10/26 03:38:55;;;;;;;28.48;21.33;;;;;;;;;;2090639;28;20198;-62
2021/10/26 03:39:56;;;;;;;23.88;21.33;;;;;;;;;;2080982;28;20172;-65
2021/10/26 03:40:56;;;;;;;25.77;20.50;;;;;;;;;;2073020;28;20192;-64
2021/10/26 03:41:58;;;;;;;24.20;21.17;;;;;;;;;;2081250;28;20185;-65
2021/10/26 03:42:58;;;;;;;28.05;21.60;;;;;;;;;;2082064;28;20231;-64
2021/10/26 03:44:01;;;;;;;27.85;21.60;;;;;;;;;;2072353;28;20605;-65
2021/10/26 03:45:01;;;;;;;26.30;21.80;;;;;;;;;;2089350;28;20171;-65
2021/10/26 03:46:02;;;;;;;27.42;20.67;;;;;;;;;;2083966;28;20204;-65
2021/10/26 03:47:03;;;;;;;28.73;22.65;;;;;;;;;;2089928;28;20225;-64
2021/10/26 03:48:03;;;;;;;24.92;21.60;;;;;;;;;;2082377;28;20185;-64
2021/10/26 03:49:04;;;;;;;27.08;20.52;;;;;;;;;;2078107;28;20231;-65
2021/10/26 03:50:06;;;;;;;26.50;21.77;;;;;;;;;;2074084;28;20636;-65
2021/10/26 03:51:06;;;;;;;28.17;21.75;;;;;;;;;;2090185;28;20198;-65
2021/10/26 03:52:08;;;;;;;26.35;22.02;;;;;;;;;;2089955;28;20175;-65
2021/10/26 03:53:09;;;;;;;25.33;21.38;;;;;;;;;;2081229;28;20244;-65
2021/10/26 03:54:10;;;;;;;31.67;22.40;;;;;;;;;;2089044;28;20175;-65
2021/10/26 03:55:10;;;;;;;26.60;21.40;;;;;;;;;;2082063;28;20231;-65
2021/10/26 03:56:13;;;;;;;28.40;21.70;;;;;;;;;;2073389;28;20177;-65
2021/10/26 03:57:14;;;;;;;31.38;22.23;;;;;;;;;;2073707;28;20228;-63
2021/10/26 03:58:15;;;;;;;29.27;21.95;;;;;;;;;;2082963;28;20180;-65
2021/10/26 03:59:22;;;;;;;29.15;22.48;;;;;;;;;;2084571;28;20172;-65
2021/10/26 04:00:23;;;;;;;27.10;21.95;;;;;;;;;;2067289;28;20332;-65
2021/10/26 04:01:42;;;;;;;29.55;23.45;;;;;;;;;;2077154;28;20177;-65
2021/10/26 04:02:42;;;;;;;29.75;23.20;;;;;;;;;;2076594;28;20204;-65
2021/10/26 04:03:44;;;;;;;29.45;21.88;;;;;;;;;;2072446;28;20265;-65
2021/10/26 04:04:45;;;;;;;25.85;20.85;;;;;;;;;;2070786;28;20719;-65
2021/10/26 04:06:06;;;;;;;27.05;21.80;;;;;;;;;;2073567;28;20219;-66
2021/10/26 04:07:09;;;;;;;26.67;20.30;;;;;;;;;;2078631;28;20175;-66
2021/10/26 04:08:50;;;;;;;29.30;22.23;;;;;;;;;;2089535;28;20247;-65
2021/10/26 04:09:47;;;;;;;30.88;22.88;;;;;;;;;;2077864;28;20180;-65
2021/10/26 04:10:57;;;;;;;24.20;21.50;;;;;;;;;;2077591;28;20668;-65
2021/10/26 04:12:18;;;;;;;30.75;22.85;;;;;;;;;;2075294;28;20168;-65
2021/10/26 04:13:20;;;;;;;28.48;23.23;;;;;;;;;;2088777;28;20182;-65
2021/10/26 04:14:20;;;;;;;30.98;22.30;;;;;;;;;;2085844;28;20176;-65
2021/10/26 04:15:24;;;;;;;29.85;21.60;;;;;;;;;;2082277;28;20270;-65
2021/10/26 04:16:25;;;;;;;28.80;22.95;;;;;;;;;;2085966;28;20184;-65
2021/10/26 04:17:27;;;;;;;31.25;23.45;;;;;;;;;;2074860;28;20669;-65
2021/10/26 04:18:28;;;;;;;28.90;21.95;;;;;;;;;;2074520;28;20250;-65
2021/10/26 04:19:28;;;;;;;31.88;23.77;;;;;;;;;;2078158;28;20188;-65
2021/10/26 04:20:29;;;;;;;32.65;23.50;;;;;;;;;;2086377;28;20264;-65
2021/10/26 04:21:29;;;;;;;34.17;23.67;;;;;;;;;;2080513;28;20196;-65
2021/10/26 04:22:31;;;;;;;29.92;24.27;;;;;;;;;;2065259;28;20199;-65
2021/10/26 04:23:32;;;;;;;30.15;24.17;;;;;;;;;;2054906;28;20190;-66
2021/10/26 04:24:34;;;;;;;31.33;25.55;;;;;;;;;;2071183;28;20611;-64
2021/10/26 04:25:34;;;;;;;33.13;26.13;;;;;;;;;;2081191;28;20255;-66
2021/10/26 04:26:34;;;;;;;32.08;24.20;;;;;;;;;;2081534;28;20621;-66
2021/10/26 04:27:35;;;;;;;38.65;24.95;;;;;;;;;;2072936;28;20236;-64
2021/10/26 04:28:35;;;;;;;33.03;25.15;;;;;;;;;;2080412;28;20722;-66
2021/10/26 04:29:41;;;;;;;34.35;26.25;;;;;;;;;;2080739;28;20184;-65
2021/10/26 04:30:45;;;;;;;34.45;26.00;;;;;;;;;;2081817;28;20271;-66
2021/10/26 04:31:50;;;;;;;35.22;26.65;;;;;;;;;;2081302;28;20167;-65
2021/10/26 04:32:55;;;;;;;33.38;26.48;;;;;;;;;;2081339;28;20192;-65
2021/10/26 04:33:59;;;;;;;36.67;27.08;;;;;;;;;;2072736;28;20216;-65
2021/10/26 04:35:01;;;;;;;38.25;27.23;;;;;;;;;;2073638;28;20176;-66
2021/10/26 04:36:01;;;;;;;34.22;28.33;;;;;;;;;;2080614;28;20176;-65
2021/10/26 04:37:01;;;;;;;36.83;28.95;;;;;;;;;;2075236;28;20279;-65
2021/10/26 04:38:04;;;;;;;41.60;30.50;;;;;;;;;;2080886;28;20172;-65
2021/10/26 04:39:04;;;;;;;39.13;30.08;;;;;;;;;;2069542;28;20257;-64
2021/10/26 04:40:05;;;;;;;41.83;28.98;;;;;;;;;;2072237;28;20255;-64
2021/10/26 04:41:08;;;;;;;42.30;29.67;;;;;;;;;;2073092;28;20189;-64
2021/10/26 04:42:09;;;;;;;45.35;29.15;;;;;;;;;;2072918;28;20165;-65
2021/10/26 04:43:10;;;;;;;43.30;30.00;;;;;;;;;;2080191;28;20283;-68
2021/10/26 04:44:11;;;;;;;37.72;30.10;;;;;;;;;;2072785;28;20540;-66
2021/10/26 04:45:11;;;;;;;37.60;28.10;;;;;;;;;;2081270;28;20250;-66
2021/10/26 04:46:12;;;;;;;39.65;29.23;;;;;;;;;;2072909;28;20177;-66
2021/10/26 04:47:12;;;;;;;38.75;29.05;;;;;;;;;;2065308;28;20705;-65
2021/10/26 04:48:16;;;;;;;35.20;28.85;;;;;;;;;;2080136;28;20168;-65
2021/10/26 04:49:16;;;;;;;36.85;27.20;;;;;;;;;;2073305;28;20181;-65
2021/10/26 04:50:18;;;;;;;33.53;27.33;;;;;;;;;;2072827;28;20177;-62
2021/10/26 04:51:18;;;;;;;35.85;27.52;;;;;;;;;;2081681;28;20271;-64
2021/10/26 04:52:19;;;;;;;32.55;25.95;;;;;;;;;;2081311;28;20275;-66
2021/10/26 04:53:22;;;;;;;35.08;26.38;;;;;;;;;;2077597;28;20192;-65
2021/10/26 04:54:28;;;;;;;34.63;25.92;;;;;;;;;;2081361;28;20633;-64
2021/10/26 04:55:39;;;;;;;35.72;27.75;;;;;;;;;;2080451;28;20230;-65
2021/10/26 04:56:39;;;;;;;33.97;26.30;;;;;;;;;;2073175;28;20290;-64
2021/10/26 04:58:02;;;;;;;30.23;24.73;;;;;;;;;;2072525;28;20172;-65
2021/10/26 04:59:10;;;;;;;33.88;26.25;;;;;;;;;;2073269;28;20173;-65
2021/10/26 05:00:12;;;;;;;32.45;26.40;;;;;;;;;;2081274;28;20183;-67
2021/10/26 05:01:12;;;;;;;35.63;26.17;;;;;;;;;;2081174;28;20161;-64
2021/10/26 05:02:12;;;;;;;36.33;27.40;;;;;;;;;;2081353;28;20177;-65
2021/10/26 05:03:16;;;;;;;33.33;25.85;;;;;;;;;;2073037;28;20191;-63
2021/10/26 05:04:16;;;;;;;37.05;26.40;;;;;;;;;;2064543;28;20177;-65
2021/10/26 05:05:19;;;;;;;33.30;26.25;;;;;;;;;;2077038;28;20206;-65
2021/10/26 05:06:22;;;;;;;39.35;26.88;;;;;;;;;;2081225;28;20169;-65
2021/10/26 05:07:24;;;;;;;33.15;25.33;;;;;;;;;;2080780;28;20173;-67
2021/10/26 05:08:26;;;;;;;36.17;25.52;;;;;;;;;;2069530;28;20227;-65
2021/10/26 05:09:27;;;;;;;35.78;25.58;;;;;;;;;;2081557;28;20646;-65
2021/10/26 05:10:27;;;;;;;32.25;25.55;;;;;;;;;;2072796;28;20243;-65
2021/10/26 05:11:28;;;;;;;32.20;24.90;;;;;;;;;;2064950;28;20517;-64
2021/10/26 05:12:28;;;;;;;33.13;24.98;;;;;;;;;;2080604;28;20180;-65
2021/10/26 05:13:32;;;;;;;36.58;25.63;;;;;;;;;;2072244;28;20185;-65
2021/10/26 05:15:01;;;;;;;33.50;25.73;;;;;;;;;;2053369;28;20803;-64
2021/10/26 05:16:28;;;;;;;32.63;24.70;;;;;;;;;;2052034;28;20214;-65
2021/10/26 05:17:49;;;;;;;31.85;24.55;;;;;;;;;;2081657;28;20172;-65
2021/10/26 05:19:08;;;;;;;33.38;24.98;;;;;;;;;;2082017;28;20546;-64
2021/10/26 05:20:28;;;;;;;33.30;26.27;;;;;;;;;;2081356;28;20176;-66
2021/10/26 05:22:06;;;;;;;33.67;24.42;;;;;;;;;;2048147;29;20266;-64
2021/10/26 05:23:23;;;;;;;31.92;24.52;;;;;;;;;;2048191;29;20186;-67
2021/10/26 05:24:35;;;;;;;33.45;25.17;;;;;;;;;;2048445;29;20182;-64
2021/10/26 05:25:48;;;;;;;32.83;24.40;;;;;;;;;;2047910;29;20761;-65
2021/10/26 05:26:51;;;;;;;29.67;23.63;;;;;;;;;;2040429;29;20175;-65
2021/10/26 05:27:52;;;;;;;30.88;24.05;;;;;;;;;;2059878;28;20224;-68
2021/10/26 05:28:52;;;;;;;34.72;26.45;;;;;;;;;;2072805;28;20541;-64
2021/10/26 05:29:54;;;;;;;32.35;24.85;;;;;;;;;;2072640;28;20200;-63
2021/10/26 05:30:54;;;;;;;36.65;23.98;;;;;;;;;;2080762;28;20230;-64
2021/10/26 05:31:54;;;;;;;36.28;26.13;;;;;;;;;;2080729;28;20624;-65
2021/10/26 05:32:55;;;;;;;32.95;25.02;;;;;;;;;;2076295;28;20716;-64
2021/10/26 05:33:56;;;;;;;34.95;26.00;;;;;;;;;;2088650;28;20171;-64
2021/10/26 05:34:56;;;;;;;35.35;23.75;;;;;;;;;;2088190;28;20214;-65
2021/10/26 05:35:57;;;;;;;30.52;23.45;;;;;;;;;;2078977;28;20260;-66
2021/10/26 05:36:57;;;;;;;30.40;25.52;;;;;;;;;;2080459;28;20271;-62
2021/10/26 05:37:57;;;;;;;29.85;23.13;;;;;;;;;;2077956;28;20197;-63
2021/10/26 05:38:58;;;;;;;30.83;22.90;;;;;;;;;;2080468;28;20247;-64
2021/10/26 05:39:59;;;;;;;34.13;23.40;;;;;;;;;;2080979;28;20275;-65
2021/10/26 05:40:59;;;;;;;34.10;24.02;;;;;;;;;;2080358;28;20172;-65
2021/10/26 05:42:00;;;;;;;34.83;23.88;;;;;;;;;;2075899;28;20641;-64
2021/10/26 05:43:01;;;;;;;30.30;23.92;;;;;;;;;;2081397;28;20223;-64
2021/10/26 05:44:01;;;;;;;32.17;23.42;;;;;;;;;;2078746;28;20650;-65
2021/10/26 05:45:03;;;;;;;34.30;24.08;;;;;;;;;;2072225;28;20181;-64
2021/10/26 05:46:04;;;;;;;33.85;23.35;;;;;;;;;;2078092;28;20876;-65
2021/10/26 05:47:04;;;;;;;28.08;22.90;;;;;;;;;;2076504;28;20172;-65
2021/10/26 05:49:19;;;;;;;30.42;23.08;;;;;;;;;;2076087;28;20222;-57
2021/10/26 05:50:20;;;;;;;30.25;22.15;;;;;;;;;;2079115;28;20214;-55
2021/10/26 05:51:20;;;;;;;32.47;22.25;;;;;;;;;;2088404;28;20665;-54
2021/10/26 05:52:21;;;;;;;31.52;23.05;;;;;;;;;;2089145;28;20160;-54
2021/10/26 05:53:21;;;;;;;29.50;22.35;;;;;;;;;;2089040;28;20175;-56
2021/10/26 05:54:21;;;;;;;31.02;21.65;;;;;;;;;;2081971;28;20179;-56
2021/10/26 05:55:21;;;;;;;28.52;22.13;;;;;;;;;;2086840;28;20175;-59
2021/10/26 05:56:23;;;;;;;28.92;22.67;;;;;;;;;;2093132;28;20184;-57
2021/10/26 05:57:23;;;;;;;30.20;21.08;;;;;;;;;;2092064;28;20294;-58
2021/10/26 05:58:24;;;;;;;28.25;21.73;;;;;;;;;;2073933;28;20180;-57
2021/10/26 05:59:24;;;;;;;30.52;22.35;;;;;;;;;;2071748;28;20197;-57
2021/10/26 06:00:25;;;;;;;31.77;23.17;;;;;;;;;;2069486;28;20196;-53
2021/10/26 06:01:26;;;;;;;31.77;22.70;;;;;;;;;;2065255;28;20742;-57
2021/10/26 06:02:26;;;;;;;28.88;21.75;;;;;;;;;;2072386;28;20263;-56
2021/10/26 06:03:27;;;;;;;31.65;22.60;;;;;;;;;;2080746;28;20164;-56